createdAt,value
2024-01-06T00:00:24.249Z,12.90
2024-01-06T00:02:51.473Z,12.93
2024-01-06T00:05:18.492Z,13.80
2024-01-06T00:07:45.597Z,14.00
2024-01-06T00:10:15.149Z,13.87
2024-01-06T00:12:43.708Z,14.43
2024-01-06T00:15:12.036Z,14.53
2024-01-06T00:17:39.365Z,14.43
2024-01-06T00:20:07.494Z,15.33
2024-01-06T00:22:34.804Z,15.47
2024-01-06T00:25:01.943Z,15.67
2024-01-06T00:27:28.995Z,14.43
2024-01-06T00:29:56.033Z,15.40
2024-01-06T00:32:23.071Z,15.27
2024-01-06T00:34:50.144Z,14.17
2024-01-06T00:37:17.231Z,14.20
2024-01-06T00:39:44.310Z,13.30
2024-01-06T00:42:11.528Z,13.60
2024-01-06T00:44:39.324Z,12.37
2024-01-06T00:47:06.382Z,12.30
2024-01-06T00:49:33.580Z,12.80
2024-01-06T00:52:00.796Z,12.23
2024-01-06T00:54:27.777Z,12.30
2024-01-06T00:56:57.426Z,12.10
2024-01-06T00:59:25.321Z,12.23
2024-01-06T01:01:52.508Z,12.07
2024-01-06T01:04:19.640Z,11.77
2024-01-06T01:06:46.822Z,12.07
2024-01-06T01:09:15.552Z,12.23
2024-01-06T01:11:43.057Z,12.17
2024-01-06T01:14:10.230Z,12.57
2024-01-06T01:16:37.339Z,12.17
2024-01-06T01:19:04.675Z,12.03
2024-01-06T01:21:31.854Z,12.40
2024-01-06T01:23:58.915Z,12.47
2024-01-06T01:26:26.666Z,12.50
2024-01-06T01:28:53.664Z,10.90
2024-01-06T01:31:20.957Z,11.00
2024-01-06T01:33:48.308Z,11.07
2024-01-06T01:36:15.551Z,11.33
2024-01-06T01:38:42.623Z,11.00
2024-01-06T01:41:09.682Z,10.83
2024-01-06T01:43:36.674Z,11.03
2024-01-06T01:46:03.979Z,10.27
2024-01-06T01:48:32.430Z,10.07
2024-01-06T01:50:59.612Z,10.60
2024-01-06T01:53:27.952Z,10.23
2024-01-06T01:55:55.735Z,10.10
2024-01-06T01:58:22.735Z,9.63
2024-01-06T02:00:49.915Z,9.53
2024-01-06T02:03:17.725Z,8.97
2024-01-06T02:05:44.790Z,9.37
2024-01-06T02:08:11.860Z,9.80
2024-01-06T02:10:39.119Z,9.73
2024-01-06T02:13:10.617Z,9.83
2024-01-06T02:15:38.463Z,10.30
2024-01-06T02:18:06.101Z,9.50
2024-01-06T02:20:33.887Z,9.50
2024-01-06T02:23:01.868Z,9.43
2024-01-06T02:25:29.150Z,9.90
2024-01-06T02:27:56.737Z,9.57
2024-01-06T02:30:23.965Z,9.83
2024-01-06T02:32:51.057Z,9.07
2024-01-06T02:35:18.068Z,9.13
2024-01-06T02:37:45.207Z,8.57
2024-01-06T02:40:12.809Z,9.37
2024-01-06T02:42:39.846Z,8.77
2024-01-06T02:45:08.751Z,8.80
2024-01-06T02:47:35.821Z,8.87
2024-01-06T02:50:02.997Z,8.43
2024-01-06T02:52:30.055Z,8.23
2024-01-06T02:54:57.180Z,9.23
2024-01-06T02:57:24.296Z,8.70
2024-01-06T02:59:51.549Z,9.00
2024-01-06T03:02:18.623Z,9.50
2024-01-06T03:04:45.697Z,8.57
2024-01-06T03:07:12.674Z,9.23
2024-01-06T03:09:42.463Z,9.77
2024-01-06T03:12:09.710Z,9.60
2024-01-06T03:14:37.025Z,9.97
2024-01-06T03:17:04.647Z,9.83
2024-01-06T03:19:34.891Z,10.23
2024-01-06T03:22:02.048Z,9.77
2024-01-06T03:24:29.143Z,10.13
2024-01-06T03:26:56.164Z,10.43
2024-01-06T03:29:23.134Z,9.77
2024-01-06T03:31:50.246Z,10.27
2024-01-06T03:34:17.623Z,10.80
2024-01-06T03:36:44.839Z,9.97
2024-01-06T03:39:12.112Z,9.70
2024-01-06T03:41:39.293Z,10.20
2024-01-06T03:44:06.469Z,10.83
2024-01-06T03:46:35.796Z,10.43
2024-01-06T03:49:03.069Z,11.13
2024-01-06T03:51:30.226Z,10.53
2024-01-06T03:53:57.354Z,10.93
2024-01-06T03:56:24.365Z,10.93
2024-01-06T03:58:51.462Z,10.87
2024-01-06T04:01:18.470Z,10.77
2024-01-06T04:03:45.596Z,10.80
2024-01-06T04:06:12.946Z,11.37
2024-01-06T04:08:41.666Z,11.10
2024-01-06T04:11:08.599Z,10.90
2024-01-06T04:13:35.600Z,11.00
2024-01-06T04:16:03.821Z,11.17
2024-01-06T04:18:31.016Z,11.37
2024-01-06T04:20:58.178Z,11.33
2024-01-06T04:23:26.490Z,11.97
2024-01-06T04:25:53.842Z,12.07
2024-01-06T04:28:20.955Z,11.93
2024-01-06T04:30:48.194Z,12.30
2024-01-06T04:33:15.871Z,11.90
2024-01-06T04:35:42.944Z,11.87
2024-01-06T04:38:10.342Z,13.07
2024-01-06T04:40:37.432Z,13.17
2024-01-06T04:43:04.861Z,12.13
2024-01-06T04:45:32.213Z,12.93
2024-01-06T04:47:59.312Z,12.47
2024-01-06T04:50:26.334Z,13.13
2024-01-06T04:52:53.257Z,12.13
2024-01-06T04:55:20.335Z,11.97
2024-01-06T04:57:50.900Z,12.13
2024-01-06T05:00:18.129Z,12.07
2024-01-06T05:02:45.839Z,12.63
2024-01-06T05:05:12.997Z,12.10
2024-01-06T05:07:40.034Z,12.83
2024-01-06T05:10:07.694Z,12.67
2024-01-06T05:12:34.714Z,12.40
2024-01-06T05:15:01.748Z,12.47
2024-01-06T05:17:28.904Z,13.00
2024-01-06T05:19:56.593Z,11.70
2024-01-06T05:22:23.596Z,11.77
2024-01-06T05:24:54.459Z,11.87
2024-01-06T05:27:21.796Z,11.23
2024-01-06T05:29:50.392Z,11.27
2024-01-06T05:32:18.786Z,11.47
2024-01-06T05:34:46.773Z,11.03
2024-01-06T05:37:14.122Z,10.63
2024-01-06T05:39:41.678Z,11.13
2024-01-06T05:42:14.307Z,10.63
2024-01-06T05:44:41.508Z,10.97
2024-01-06T05:47:09.748Z,11.33
2024-01-06T05:49:36.937Z,11.20
2024-01-06T05:52:04.168Z,10.97
2024-01-06T05:54:31.860Z,11.07
2024-01-06T05:56:58.988Z,11.47
2024-01-06T05:59:25.953Z,11.50
2024-01-06T06:01:53.594Z,11.47
2024-01-06T06:04:20.814Z,11.30
2024-01-06T06:06:47.929Z,11.67
2024-01-06T06:09:16.904Z,11.07
2024-01-06T06:11:44.307Z,12.13
2024-01-06T06:14:11.312Z,11.27
2024-01-06T06:16:38.310Z,11.97
2024-01-06T06:19:05.603Z,12.37
2024-01-06T06:21:32.845Z,12.43
2024-01-06T06:23:59.872Z,12.40
2024-01-06T06:26:29.693Z,12.60
2024-01-06T06:28:56.660Z,12.27
2024-01-06T06:31:23.837Z,11.93
2024-01-06T06:33:51.030Z,12.53
2024-01-06T06:36:18.184Z,12.30
2024-01-06T06:38:45.348Z,12.73
2024-01-06T06:41:12.336Z,11.73
2024-01-06T06:43:39.363Z,11.83
2024-01-06T06:46:06.351Z,12.13
2024-01-06T06:48:33.406Z,12.33
2024-01-06T06:51:01.166Z,13.13
2024-01-06T06:53:28.120Z,12.80
2024-01-06T06:55:55.163Z,12.53
2024-01-06T06:58:22.195Z,12.80
2024-01-06T07:00:49.155Z,13.27
2024-01-06T07:03:17.284Z,12.27
2024-01-06T07:05:44.329Z,12.40
2024-01-06T07:08:11.482Z,12.10
2024-01-06T07:10:39.109Z,12.53
2024-01-06T07:13:06.643Z,12.10
2024-01-06T07:15:33.852Z,13.00
2024-01-06T07:18:01.015Z,12.63
2024-01-06T07:20:28.057Z,13.40
2024-01-06T07:22:55.033Z,12.27
2024-01-06T07:25:21.954Z,12.60
2024-01-06T07:27:51.383Z,12.07
2024-01-06T07:30:19.741Z,12.70
2024-01-06T07:32:46.768Z,12.60
2024-01-06T07:35:13.960Z,12.67
2024-01-06T07:37:40.942Z,12.97
2024-01-06T07:40:08.244Z,12.37
2024-01-06T07:42:35.368Z,12.13
2024-01-06T07:45:03.538Z,13.43
2024-01-06T07:47:30.541Z,12.73
2024-01-06T07:49:58.740Z,13.37
2024-01-06T07:52:25.886Z,13.10
2024-01-06T07:54:52.866Z,13.33
2024-01-06T07:57:19.956Z,13.00
2024-01-06T07:59:47.223Z,12.77
2024-01-06T08:02:14.249Z,13.13
2024-01-06T08:04:41.242Z,13.83
2024-01-06T08:07:08.427Z,13.47
2024-01-06T08:09:35.494Z,13.03
2024-01-06T08:12:04.392Z,13.07
2024-01-06T08:14:31.435Z,13.40
2024-01-06T08:16:58.533Z,13.17
2024-01-06T08:19:25.878Z,12.93
2024-01-06T08:21:53.047Z,12.67
2024-01-06T08:24:20.155Z,13.07
2024-01-06T08:26:47.193Z,12.23
2024-01-06T08:29:15.390Z,12.70
2024-01-06T08:31:42.448Z,12.77
2024-01-06T08:34:10.203Z,12.70
2024-01-06T08:36:37.266Z,13.50
2024-01-06T08:39:04.370Z,12.83
2024-01-06T08:41:31.425Z,12.10
2024-01-06T08:43:58.645Z,12.40
2024-01-06T08:46:25.560Z,10.93
2024-01-06T08:48:52.635Z,11.57
2024-01-06T08:51:21.826Z,11.00
2024-01-06T08:53:48.943Z,11.73
2024-01-06T08:56:30.894Z,11.70
2024-01-06T08:58:58.362Z,11.20
2024-01-06T09:01:26.124Z,11.00
2024-01-06T09:03:53.302Z,11.63
2024-01-06T09:06:20.469Z,10.90
2024-01-06T09:08:47.433Z,11.10
2024-01-06T09:11:14.477Z,11.93
2024-01-06T09:13:41.423Z,11.57
2024-01-06T09:16:08.728Z,10.90
2024-01-06T09:18:35.839Z,10.97
2024-01-06T09:21:04.287Z,10.83
2024-01-06T09:23:32.956Z,11.10
2024-01-06T09:26:00.060Z,11.17
2024-01-06T09:28:26.988Z,11.63
2024-01-06T09:30:57.104Z,11.03
2024-01-06T09:33:24.625Z,11.67
2024-01-06T09:35:52.055Z,11.40
2024-01-06T09:38:19.912Z,10.77
2024-01-06T09:40:49.563Z,9.50
2024-01-06T09:43:16.737Z,9.90
2024-01-06T09:45:44.828Z,9.87
2024-01-06T09:48:16.052Z,9.97
2024-01-06T09:50:45.812Z,10.13
2024-01-06T09:53:13.488Z,10.17
2024-01-06T09:55:40.488Z,9.10
2024-01-06T09:58:08.190Z,9.60
2024-01-06T10:00:35.552Z,10.00
2024-01-06T10:03:02.564Z,9.47
2024-01-06T10:05:29.869Z,9.47
2024-01-06T10:07:56.805Z,9.57
2024-01-06T10:10:24.491Z,9.17
2024-01-06T10:12:54.990Z,9.20
2024-01-06T10:15:22.277Z,10.10
2024-01-06T10:17:49.326Z,9.90
2024-01-06T10:20:18.951Z,9.37
2024-01-06T10:22:46.768Z,8.87
2024-01-06T10:25:14.230Z,9.73
2024-01-06T10:27:42.441Z,9.57
2024-01-06T10:30:11.429Z,9.23
2024-01-06T10:32:40.393Z,9.03
2024-01-06T10:35:08.630Z,8.93
2024-01-06T10:37:36.840Z,9.23
2024-01-06T10:40:21.806Z,8.57
2024-01-06T10:42:49.124Z,9.23
2024-01-06T10:45:17.054Z,8.73
2024-01-06T10:47:45.513Z,8.60
2024-01-06T10:50:12.846Z,9.20
2024-01-06T10:52:40.576Z,8.67
2024-01-06T10:55:08.098Z,9.07
2024-01-06T10:57:35.738Z,11.10
2024-01-06T11:00:02.986Z,9.43
2024-01-06T11:02:32.286Z,9.43
2024-01-06T11:04:59.432Z,8.77
2024-01-06T11:07:27.346Z,9.77
2024-01-06T11:09:59.714Z,8.67
2024-01-06T11:12:27.769Z,8.90
2024-01-06T11:14:55.529Z,8.80
2024-01-06T11:17:55.633Z,9.33
2024-01-06T11:20:24.137Z,8.60
2024-01-06T11:22:52.280Z,8.53
2024-01-06T11:25:21.544Z,8.73
2024-01-06T11:27:50.365Z,9.40
2024-01-06T11:30:26.100Z,8.53
2024-01-06T11:32:55.011Z,8.70
2024-01-06T11:35:23.190Z,9.50
2024-01-06T11:37:50.716Z,9.47
2024-01-06T11:40:27.032Z,10.43
2024-01-06T11:43:03.778Z,9.90
2024-01-06T11:45:31.489Z,9.87
2024-01-06T11:48:04.757Z,10.13
2024-01-06T11:50:37.095Z,9.77
2024-01-06T11:53:05.451Z,9.87
2024-01-06T11:55:33.500Z,9.33
2024-01-06T11:58:05.196Z,8.83
2024-01-06T12:00:33.911Z,8.90
2024-01-06T12:03:02.405Z,8.37
2024-01-06T12:05:29.746Z,9.10
2024-01-06T12:07:58.858Z,8.97
2024-01-06T12:10:27.452Z,8.47
2024-01-06T12:13:03.821Z,9.33
2024-01-06T12:15:32.848Z,8.00
2024-01-06T12:18:00.486Z,8.23
2024-01-06T12:20:30.183Z,8.20
2024-01-06T12:22:57.632Z,7.80
2024-01-06T12:25:26.768Z,7.87
2024-01-06T12:27:55.107Z,7.53
2024-01-06T12:30:24.265Z,7.73
2024-01-06T12:32:53.876Z,7.10
2024-01-06T12:35:22.693Z,7.37
2024-01-06T12:37:50.068Z,7.03
2024-01-06T12:40:18.806Z,6.73
2024-01-06T12:42:46.646Z,6.23
2024-01-06T12:45:14.562Z,5.90
2024-01-06T12:47:42.618Z,5.60
2024-01-06T12:50:10.176Z,6.20
2024-01-06T12:52:39.228Z,6.20
2024-01-06T12:55:07.812Z,5.90
2024-01-06T12:57:35.270Z,5.93
2024-01-06T13:00:02.613Z,5.63
2024-01-06T13:02:29.689Z,5.87
2024-01-06T13:04:56.797Z,5.90
2024-01-06T13:07:24.081Z,6.27
2024-01-06T13:09:51.451Z,6.00
2024-01-06T13:12:19.922Z,5.93
2024-01-06T13:14:50.789Z,5.60
2024-01-06T13:17:18.348Z,5.67
2024-01-06T13:19:45.522Z,5.87
2024-01-06T13:22:12.711Z,5.93
2024-01-06T13:24:41.784Z,6.03
2024-01-06T13:27:09.441Z,6.23
2024-01-06T13:29:36.523Z,6.40
2024-01-06T13:32:03.875Z,6.80
2024-01-06T13:34:31.444Z,6.70
2024-01-06T13:36:58.878Z,6.40
2024-01-06T13:39:26.022Z,7.00
2024-01-06T13:41:53.304Z,6.70
2024-01-06T13:44:20.443Z,6.00
2024-01-06T13:46:48.963Z,5.70
2024-01-06T13:49:16.233Z,5.73
2024-01-06T13:51:43.377Z,5.90
2024-01-06T13:54:11.017Z,5.00
2024-01-06T13:56:38.506Z,5.33
2024-01-06T13:59:05.625Z,5.50
2024-01-06T14:01:34.049Z,4.87
2024-01-06T14:04:01.773Z,5.07
2024-01-06T14:06:32.505Z,5.00
2024-01-06T14:09:00.578Z,4.83
2024-01-06T14:11:28.469Z,4.50
2024-01-06T14:13:55.977Z,4.40
2024-01-06T14:16:23.180Z,4.60
2024-01-06T14:18:50.571Z,4.57
2024-01-06T14:21:20.908Z,4.97
2024-01-06T14:23:49.937Z,5.10
2024-01-06T14:26:18.382Z,4.67
2024-01-06T14:28:45.469Z,4.90
2024-01-06T14:31:12.684Z,5.50
2024-01-06T14:33:39.809Z,4.57
2024-01-06T14:36:07.779Z,4.90
2024-01-06T14:38:34.824Z,4.87
2024-01-06T14:41:01.961Z,5.00
2024-01-06T14:43:29.021Z,5.60
2024-01-06T14:45:56.156Z,5.20
2024-01-06T14:48:23.823Z,5.20
2024-01-06T14:50:51.764Z,5.70
2024-01-06T14:53:18.952Z,5.63
2024-01-06T14:55:46.056Z,5.83
2024-01-06T14:58:13.705Z,5.53
2024-01-06T15:00:40.956Z,5.30
2024-01-06T15:03:08.217Z,6.07
2024-01-06T15:05:35.507Z,5.30
2024-01-06T15:08:02.697Z,5.63
2024-01-06T15:10:29.715Z,5.77
2024-01-06T15:12:57.043Z,6.07
2024-01-06T15:15:24.254Z,5.53
2024-01-06T15:17:51.269Z,5.30
2024-01-06T15:20:18.364Z,5.53
2024-01-06T15:22:45.584Z,4.80
2024-01-06T15:25:12.687Z,4.23
2024-01-06T15:27:39.808Z,3.83
2024-01-06T15:30:09.961Z,3.57
2024-01-06T15:32:38.316Z,2.93
2024-01-06T15:35:06.924Z,3.23
2024-01-06T15:37:34.069Z,2.87
2024-01-06T15:40:01.215Z,3.17
2024-01-06T15:42:28.971Z,3.03
2024-01-06T15:44:56.436Z,3.23
2024-01-06T15:47:23.538Z,2.87
2024-01-06T15:49:50.781Z,3.13
2024-01-06T15:52:22.652Z,3.63
2024-01-06T15:54:50.435Z,3.00
2024-01-06T15:57:17.764Z,3.23
2024-01-06T15:59:45.390Z,3.33
2024-01-06T16:02:12.574Z,3.73
2024-01-06T16:04:39.592Z,2.80
2024-01-06T16:07:07.288Z,3.50
2024-01-06T16:09:34.583Z,3.03
2024-01-06T16:12:01.583Z,3.30
2024-01-06T16:14:31.453Z,2.90
2024-01-06T16:17:01.307Z,3.27
2024-01-06T16:19:29.390Z,3.67
2024-01-06T16:22:07.312Z,3.47
2024-01-06T16:24:42.043Z,3.03
2024-01-06T16:27:09.187Z,3.37
2024-01-06T16:29:39.253Z,3.53
2024-01-06T16:32:06.987Z,3.40
2024-01-06T16:34:35.221Z,3.60
2024-01-06T16:37:02.421Z,3.80
2024-01-06T16:39:32.481Z,3.87
2024-01-06T16:41:59.795Z,4.33
2024-01-06T16:44:26.821Z,3.93
2024-01-06T16:46:58.344Z,4.10
2024-01-06T16:49:28.274Z,4.27
2024-01-06T16:51:55.944Z,4.10
2024-01-06T16:54:22.971Z,4.70
2024-01-06T16:56:50.187Z,4.87
2024-01-06T16:59:17.928Z,4.47
2024-01-06T17:01:45.242Z,4.30
2024-01-06T17:04:14.301Z,4.83
2024-01-06T17:06:41.580Z,4.70
2024-01-06T17:09:08.663Z,4.03
2024-01-06T17:11:36.171Z,4.60
2024-01-06T17:14:03.920Z,4.77
2024-01-06T17:16:30.998Z,4.70
2024-01-06T17:18:58.193Z,4.93
2024-01-06T17:21:25.768Z,4.93
2024-01-06T17:23:54.198Z,4.60
2024-01-06T17:26:21.451Z,5.00
2024-01-06T17:28:48.597Z,5.10
2024-01-06T17:31:15.815Z,5.07
2024-01-06T17:33:43.195Z,4.80
2024-01-06T17:36:10.333Z,4.87
2024-01-06T17:38:37.348Z,4.53
2024-01-06T17:41:05.064Z,4.43
2024-01-06T17:43:32.214Z,4.70
2024-01-06T17:45:59.232Z,4.87
2024-01-06T17:48:26.462Z,4.40
2024-01-06T17:50:53.683Z,5.00
2024-01-06T17:53:20.874Z,4.70
2024-01-06T17:55:48.214Z,4.80
2024-01-06T17:58:15.421Z,4.77
2024-01-06T18:00:42.765Z,4.40
2024-01-06T18:03:09.817Z,4.53
2024-01-06T18:05:36.813Z,4.40
2024-01-06T18:08:04.265Z,4.50
2024-01-06T18:10:31.282Z,4.40
2024-01-06T18:12:58.336Z,4.70
2024-01-06T18:15:25.430Z,4.90
2024-01-06T18:17:52.726Z,4.53
2024-01-06T18:20:22.838Z,4.30
2024-01-06T18:22:50.418Z,4.23
2024-01-06T18:25:17.635Z,4.10
2024-01-06T18:27:46.370Z,4.37
2024-01-06T18:30:13.843Z,4.33
2024-01-06T18:32:40.926Z,4.20
2024-01-06T18:35:09.237Z,4.07
2024-01-06T18:37:36.363Z,4.30
2024-01-06T18:40:05.584Z,4.50
2024-01-06T18:42:34.224Z,4.40
2024-01-06T18:45:01.856Z,4.20
2024-01-06T18:47:29.820Z,4.07
2024-01-06T18:49:57.394Z,4.93
2024-01-06T18:52:24.897Z,4.47
2024-01-06T18:54:52.058Z,4.40
2024-01-06T18:57:19.446Z,4.90
2024-01-06T18:59:46.740Z,4.67
2024-01-06T19:02:14.564Z,4.70
2024-01-06T19:04:43.385Z,4.47
2024-01-06T19:07:11.197Z,5.30
2024-01-06T19:09:38.362Z,5.13
2024-01-06T19:12:06.835Z,5.17
2024-01-06T19:14:37.121Z,6.27
2024-01-06T19:17:04.825Z,6.07
2024-01-06T19:19:32.203Z,6.10
2024-01-06T19:21:59.305Z,6.70
2024-01-06T19:24:32.589Z,6.73
2024-01-06T19:27:03.708Z,9.27
2024-01-06T19:29:30.875Z,9.40
2024-01-06T19:31:58.657Z,9.43
2024-01-06T19:34:25.942Z,9.73
2024-01-06T19:36:53.248Z,11.63
2024-01-06T19:39:20.366Z,11.50
2024-01-06T19:41:47.426Z,11.60
2024-01-06T19:44:14.456Z,12.63
2024-01-06T19:46:41.571Z,13.03
2024-01-06T19:49:08.833Z,13.30
2024-01-06T19:51:36.331Z,12.30
2024-01-06T19:54:03.404Z,12.67
2024-01-06T19:56:30.535Z,12.90
2024-01-06T19:58:57.738Z,12.40
2024-01-06T20:01:24.926Z,12.60
2024-01-06T20:03:52.058Z,12.33
2024-01-06T20:06:20.408Z,12.67
2024-01-06T20:08:47.528Z,12.13
2024-01-06T20:11:14.644Z,12.47
2024-01-06T20:13:41.699Z,12.30
2024-01-06T20:16:08.846Z,13.03
2024-01-06T20:18:36.132Z,12.13
2024-01-06T20:21:04.547Z,12.00
2024-01-06T20:23:31.563Z,11.53
2024-01-06T20:25:58.567Z,11.60
2024-01-06T20:28:25.643Z,12.07
2024-01-06T20:30:53.092Z,11.00
2024-01-06T20:33:20.480Z,12.90
2024-01-06T20:35:48.497Z,11.30
2024-01-06T20:38:15.957Z,11.43
2024-01-06T20:40:43.784Z,10.67
2024-01-06T20:43:11.140Z,11.67
2024-01-06T20:45:38.194Z,11.37
2024-01-06T20:48:07.868Z,11.83
2024-01-06T20:50:34.862Z,11.80
2024-01-06T20:53:01.953Z,10.83
2024-01-06T20:55:29.070Z,11.83
2024-01-06T20:57:57.341Z,12.00
2024-01-06T21:00:25.669Z,11.33
2024-01-06T21:02:53.330Z,11.57
2024-01-06T21:05:20.334Z,11.20
2024-01-06T21:07:48.843Z,10.80
2024-01-06T21:10:16.844Z,11.90
2024-01-06T21:12:44.299Z,11.27
2024-01-06T21:15:11.597Z,11.70
2024-01-06T21:17:39.746Z,11.27
2024-01-06T21:20:08.572Z,12.07
2024-01-06T21:22:35.695Z,12.50
2024-01-06T21:25:05.042Z,12.53
2024-01-06T21:27:34.937Z,11.73
2024-01-06T21:30:05.864Z,12.47
2024-01-06T21:32:34.064Z,12.50
2024-01-06T21:35:03.246Z,11.53
2024-01-06T21:37:30.492Z,11.60
2024-01-06T21:39:58.760Z,10.97
2024-01-06T21:42:25.896Z,11.83
2024-01-06T21:44:52.858Z,12.50
2024-01-06T21:47:19.760Z,11.00
2024-01-06T21:49:47.046Z,11.67
2024-01-06T21:52:16.758Z,10.80
2024-01-06T21:54:43.882Z,10.80
2024-01-06T21:57:10.967Z,11.10
2024-01-06T21:59:38.008Z,12.97
2024-01-06T22:02:05.255Z,11.63
2024-01-06T22:04:32.692Z,11.73
2024-01-06T22:07:00.165Z,12.97
2024-01-06T22:09:27.240Z,12.70
2024-01-06T22:11:54.352Z,12.10
2024-01-06T22:14:23.663Z,11.97
2024-01-06T22:16:51.049Z,12.47
2024-01-06T22:19:18.097Z,13.53
2024-01-06T22:21:47.971Z,13.40
2024-01-06T22:24:17.145Z,13.17
2024-01-06T22:26:44.343Z,13.37
2024-01-06T22:29:12.035Z,13.17
2024-01-06T22:31:45.339Z,14.27
2024-01-06T22:34:15.802Z,14.63
2024-01-06T22:36:43.050Z,15.13
2024-01-06T22:39:10.211Z,15.23
2024-01-06T22:41:38.702Z,14.43
2024-01-06T22:44:05.979Z,14.53
2024-01-06T22:46:33.666Z,15.50
2024-01-06T22:49:00.874Z,14.70
2024-01-06T22:51:27.929Z,15.87
2024-01-06T22:53:55.127Z,15.57
2024-01-06T22:56:22.314Z,15.13
2024-01-06T22:58:49.344Z,15.10
2024-01-06T23:01:16.396Z,16.00
2024-01-06T23:03:43.475Z,15.23
2024-01-06T23:06:10.459Z,15.63
2024-01-06T23:08:37.688Z,16.00
2024-01-06T23:11:09.881Z,15.40
2024-01-06T23:13:38.098Z,16.00
2024-01-06T23:16:05.889Z,16.23
2024-01-06T23:18:33.073Z,15.73
2024-01-06T23:21:00.610Z,16.30
2024-01-06T23:23:27.538Z,16.20
2024-01-06T23:25:54.644Z,16.93
2024-01-06T23:28:21.634Z,16.03
2024-01-06T23:30:49.068Z,15.10
2024-01-06T23:33:16.273Z,16.20
2024-01-06T23:35:43.881Z,15.67
2024-01-06T23:38:10.837Z,15.90
2024-01-06T23:40:37.780Z,15.83
2024-01-06T23:43:08.128Z,15.43
2024-01-06T23:45:35.464Z,15.90
2024-01-06T23:48:02.585Z,15.57
2024-01-06T23:50:31.321Z,14.80
2024-01-06T23:52:58.357Z,14.83
2024-01-06T23:55:26.183Z,16.00
2024-01-06T23:57:53.253Z,14.17
